This is the latest recevied weather packets stored in our database for station/object SP9POL-3. If no packets are shown the sender has not sent any weather packets the latest 10 day(s).
| Time | Temp. | Humidity | Pressure | Rain* | Wind** | Luminosity | Snow |
|---|---|---|---|---|---|---|---|
| 1777854595 | 12.78° C | 40% | 1012.9 hPa | - | - | - | - |
| 1777852915 | 13.33° C | 41% | 1012.9 hPa | - | - | - | - |
| 1777851235 | 13.33° C | 40% | 1012.9 hPa | - | - | - | - |
| 1777849554 | 13.89° C | 37% | 1013 hPa | - | - | - | - |
| 1777847873 | 14.44° C | 36% | 1013 hPa | - | - | - | - |
| 1777846193 | 15° C | 35% | 1013.1 hPa | - | - | - | - |
| 1777844513 | 15.56° C | 33% | 1013.1 hPa | - | - | - | - |
| 1777842832 | 15.56° C | 32% | 1013.1 hPa | - | - | - | - |
| 1777841152 | 16.11° C | 31% | 1013.1 hPa | - | - | - | - |
| 1777839472 | 16.11° C | 31% | 1013 hPa | - | - | - | - |
| 1777837792 | 16.11° C | 33% | 1013 hPa | - | - | - | - |
| 1777836112 | 16.67° C | 32% | 1013 hPa | - | - | - | - |
| 1777834432 | 17.78° C | 29% | 1013 hPa | - | - | - | - |
| 1777832752 | 19.44° C | 24% | 1012.9 hPa | - | - | - | - |
| 1777831072 | 20.56° C | 21% | 1012.7 hPa | - | - | - | - |
| 1777829392 | 21.67° C | 19% | 1012.6 hPa | - | - | - | - |
| 1777827711 | 22.78° C | 18% | 1012.6 hPa | - | - | - | - |
| 1777826031 | 23.33° C | 17% | 1012.6 hPa | - | - | - | - |
| 1777824350 | 23.89° C | 16% | 1012.7 hPa | - | - | - | - |
| 1777824035 | 24.44° C | 16% | 1012.9 hPa | - | - | - | - |
| 1777822355 | 26.67° C | 13% | 1012.9 hPa | - | - | - | - |
| 1777820675 | 28.89° C | 12% | 1013.2 hPa | - | - | - | - |
| 1777818994 | 26.11° C | 13% | 1013.6 hPa | - | - | - | - |
| 1777818689 | 26.11° C | 15% | 1013.6 hPa | - | - | - | - |
| 1777817008 | 25° C | 14% | 1013.9 hPa | - | - | - | - |
* Rain since midnight (hover to see other rain measurements)
** Current wind speed in m/s (hover to see current wind gust speed)